Airfield :
LOGIN :

Register | Disclaimer

   EN    FR    IT 

 










Legend :    VFR   Marginal VFR   IFR   Intensive IFR   Very Intensive IFR
Visi :
Ceiling :
>= 8 km
>= 3000ft
5 to 8 km
1000 to 3000 ft
1500m to 5 km
500 to 1000 ft
800 to 1500m
200 to 500 ft
< 800m
< 200 ft
Symbols :   Thunderstorms  Fog  Heavy snow  Heavy precipitations  Wind > 20 kt
SIGMETs :     Misc.  Thunderstorms  Icing  Turbulence  Mountain Waves  Volcanic Ashes







- Airport Elevation : 257 ft
- IATA code : MAN
- Download approach charts


EGCC - Manchester

CURRENT METAR :
  • 150950Z AUTO 30007KT 9999 NCD 03/00 Q1000

EXPIRED METARs :
  • 150920Z AUTO 33005KT 270V350 9999 FEW025 02/00 Q0999 NOSIG
  • 150850Z AUTO 35004KT 320V030 9999 NCD 02/M00 Q0999 NOSIG
  • 150820Z AUTO 32005KT 9999 NCD 02/M00 Q0998 NOSIG
  • 150750Z AUTO 30009KT 9999 NCD 02/00 Q0997
  • 150720Z AUTO 31009KT 9999 NCD 02/M00 Q0997 NOSIG

TAF TAF EGCC
Valid from the 15 at 06:00 until the 16 at 12:00 UTC


150519Z 1506/1612 34010KT 9999 FEW025
PROB30
TEMPO 1506/1512 35015G25KT
PROB30
TEMPO 1511/1514 BKN010
BECMG 1520/1523 VRB05KT
PROB30
TEMPO 1609/1612 6000 SHRA BKN010
ATIS : +44 161 499 2324
No reported NOTAMs for that airfield.



MET'MAP, your aeronautical weather chart ! - Copyright ORBIFLY December 2007 - Disclaimer

ORBIFLY MET'MAP TEAM :

Programming & Development : Alexandra Zaïnal
Concept & Development : Baudouin d'Aumeries
Co-Development & Prog : Marc-Olivier Méhu
Technical & hardware support : Manuel Goepfert

Contact : metmap@orbifly.com




SOURCES & CREDITS :

   NOAA